createdAt,value
2019-02-20T00:00:45.443Z,0.00
2019-02-20T00:01:45.494Z,0.00
2019-02-20T00:02:45.496Z,0.00
2019-02-20T00:03:45.524Z,0.00
2019-02-20T00:04:45.550Z,0.00
2019-02-20T00:05:45.577Z,0.00
2019-02-20T00:06:45.603Z,0.00
2019-02-20T00:07:45.630Z,0.00
2019-02-20T00:08:45.658Z,0.00
2019-02-20T00:09:45.683Z,0.00
2019-02-20T00:10:45.709Z,0.00
2019-02-20T00:11:45.735Z,0.00
2019-02-20T00:12:45.762Z,0.00
2019-02-20T00:13:45.788Z,0.00
2019-02-20T00:14:45.815Z,0.00
2019-02-20T00:15:45.842Z,0.00
2019-02-20T00:16:45.868Z,0.00
2019-02-20T00:17:45.894Z,0.00
2019-02-20T00:18:45.921Z,0.00
2019-02-20T00:19:45.948Z,0.00
2019-02-20T00:20:45.974Z,0.00
2019-02-20T00:21:46.001Z,0.00
2019-02-20T00:22:46.030Z,0.00
2019-02-20T00:23:46.055Z,0.00
2019-02-20T00:24:46.083Z,0.00
2019-02-20T00:25:46.105Z,0.00
2019-02-20T00:26:46.137Z,0.00
2019-02-20T00:27:46.159Z,0.00
2019-02-20T00:28:46.235Z,0.00
2019-02-20T00:29:46.212Z,0.00
2019-02-20T00:30:46.254Z,0.00
2019-02-20T00:31:46.267Z,0.00
2019-02-20T00:32:46.292Z,0.00
2019-02-20T00:33:46.319Z,0.00
2019-02-20T00:34:46.344Z,0.00
2019-02-20T00:35:46.373Z,0.00
2019-02-20T00:36:46.396Z,0.00
2019-02-20T00:37:46.423Z,0.00
2019-02-20T00:38:46.448Z,0.00
2019-02-20T00:39:46.475Z,0.00
2019-02-20T00:40:46.501Z,0.00
2019-02-20T00:41:46.527Z,0.00
2019-02-20T00:42:46.553Z,0.00
2019-02-20T00:43:46.580Z,0.00
2019-02-20T00:44:46.610Z,0.00
2019-02-20T00:45:46.633Z,0.00
2019-02-20T00:46:46.660Z,0.00
2019-02-20T00:47:46.685Z,0.00
2019-02-20T00:48:46.712Z,0.00
2019-02-20T00:49:46.737Z,0.00
2019-02-20T00:50:46.764Z,0.00
2019-02-20T00:51:46.794Z,0.00
2019-02-20T00:52:49.847Z,0.00
2019-02-20T00:53:46.842Z,0.00
2019-02-20T00:54:46.869Z,0.00
2019-02-20T00:55:46.894Z,0.00
2019-02-20T00:56:46.922Z,0.00
2019-02-20T00:57:46.949Z,0.00
2019-02-20T00:58:46.973Z,0.00
2019-02-20T00:59:47.001Z,0.00
2019-02-20T01:00:47.030Z,0.00
2019-02-20T01:01:47.053Z,0.00
2019-02-20T01:02:47.078Z,0.00
2019-02-20T01:03:47.105Z,0.00
2019-02-20T01:04:47.132Z,0.00
2019-02-20T01:05:47.159Z,0.00
2019-02-20T01:06:47.183Z,0.00
2019-02-20T01:07:47.210Z,0.00
2019-02-20T01:08:47.236Z,0.00
2019-02-20T01:09:47.263Z,0.00
2019-02-20T01:10:47.291Z,0.00
2019-02-20T01:11:47.379Z,0.00
2019-02-20T01:12:47.342Z,0.00
2019-02-20T01:13:47.367Z,0.00
2019-02-20T01:14:47.394Z,0.00
2019-02-20T01:15:47.424Z,0.00
2019-02-20T01:16:47.446Z,0.00
2019-02-20T01:17:47.474Z,0.00
2019-02-20T01:18:47.499Z,0.00
2019-02-20T01:19:47.526Z,0.00
2019-02-20T01:20:47.553Z,0.00
2019-02-20T01:21:47.577Z,0.00
2019-02-20T01:22:47.611Z,0.00
2019-02-20T01:23:47.642Z,0.00
2019-02-20T01:24:47.659Z,0.00
2019-02-20T01:25:47.683Z,0.00
2019-02-20T01:26:47.713Z,0.00
2019-02-20T01:27:47.736Z,0.00
2019-02-20T01:28:47.764Z,0.00
2019-02-20T01:29:47.791Z,0.00
2019-02-20T01:30:47.815Z,0.00
2019-02-20T01:31:47.841Z,0.00
2019-02-20T01:32:47.871Z,0.00
2019-02-20T01:33:47.894Z,0.00
2019-02-20T01:34:47.921Z,0.00
2019-02-20T01:35:47.949Z,0.00
2019-02-20T01:36:47.975Z,0.00
2019-02-20T01:37:48.000Z,0.00
2019-02-20T01:38:48.027Z,0.00
2019-02-20T01:39:49.451Z,0.00
2019-02-20T01:40:48.079Z,0.00
2019-02-20T01:41:48.106Z,0.00
2019-02-20T01:42:48.133Z,0.00
2019-02-20T01:43:48.159Z,0.00
2019-02-20T01:44:48.185Z,0.00
2019-02-20T01:45:48.211Z,0.00
2019-02-20T01:46:48.238Z,0.00
2019-02-20T01:47:48.306Z,0.00
2019-02-20T01:48:48.295Z,0.00
2019-02-20T01:49:48.319Z,0.00
2019-02-20T01:50:48.345Z,0.00
2019-02-20T01:51:48.370Z,0.00
2019-02-20T01:52:48.397Z,0.00
2019-02-20T01:53:48.424Z,0.00
2019-02-20T01:54:48.453Z,0.00
2019-02-20T01:55:48.478Z,0.00
2019-02-20T01:56:48.503Z,0.00
2019-02-20T01:57:48.529Z,0.00
2019-02-20T01:58:48.557Z,0.00
2019-02-20T01:59:48.587Z,0.00
2019-02-20T02:00:48.617Z,0.00
2019-02-20T02:01:48.637Z,0.00
2019-02-20T02:02:48.665Z,0.00
2019-02-20T02:03:48.692Z,0.00
2019-02-20T02:04:48.716Z,0.00
2019-02-20T02:05:48.742Z,0.00
2019-02-20T02:06:48.769Z,0.00
2019-02-20T02:07:48.795Z,0.00
2019-02-20T02:08:48.823Z,0.00
2019-02-20T02:09:48.851Z,0.00
2019-02-20T02:10:48.891Z,0.00
2019-02-20T02:11:48.902Z,0.00
2019-02-20T02:12:48.934Z,0.00
2019-02-20T02:13:48.955Z,0.00
2019-02-20T02:14:48.982Z,0.00
2019-02-20T02:15:49.013Z,0.00
2019-02-20T02:16:49.036Z,0.00
2019-02-20T02:17:49.061Z,0.00
2019-02-20T02:18:49.089Z,0.00
2019-02-20T02:19:49.117Z,0.00
2019-02-20T02:20:49.143Z,0.00
2019-02-20T02:21:49.176Z,0.00
2019-02-20T02:22:49.197Z,0.00
2019-02-20T02:23:49.229Z,0.00
2019-02-20T02:24:49.249Z,0.00
2019-02-20T02:25:49.275Z,0.00
2019-02-20T02:26:49.302Z,0.00
2019-02-20T02:27:49.328Z,0.00
2019-02-20T02:28:49.355Z,0.00
2019-02-20T02:29:49.382Z,0.00
2019-02-20T02:30:49.408Z,0.00
2019-02-20T02:31:49.435Z,0.00
2019-02-20T02:32:49.462Z,0.00
2019-02-20T02:33:49.489Z,0.00
2019-02-20T02:34:49.517Z,0.00
2019-02-20T02:35:49.546Z,0.00
2019-02-20T02:36:49.569Z,0.00
2019-02-20T02:37:49.597Z,0.00
2019-02-20T02:38:49.622Z,0.00
2019-02-20T02:39:49.649Z,0.00
2019-02-20T02:40:49.677Z,0.00
2019-02-20T02:41:49.704Z,0.00
2019-02-20T02:42:49.731Z,0.00
2019-02-20T02:43:49.757Z,0.00
2019-02-20T02:44:49.785Z,0.00
2019-02-20T02:45:49.811Z,0.00
2019-02-20T02:46:49.838Z,0.00
2019-02-20T02:47:49.864Z,0.00
2019-02-20T02:48:49.891Z,0.00
2019-02-20T02:49:49.917Z,0.00
2019-02-20T02:50:49.944Z,0.00
2019-02-20T02:51:49.973Z,0.00
2019-02-20T02:52:49.997Z,0.00
2019-02-20T02:53:50.025Z,0.00
2019-02-20T02:54:50.060Z,0.00
2019-02-20T02:55:50.078Z,0.00
2019-02-20T02:56:50.108Z,0.00
2019-02-20T02:57:50.132Z,0.00
2019-02-20T02:58:50.159Z,0.00
2019-02-20T02:59:50.186Z,0.00
2019-02-20T03:00:50.215Z,0.00
2019-02-20T03:01:50.238Z,0.00
2019-02-20T03:02:50.266Z,0.00
2019-02-20T03:03:50.293Z,0.00
2019-02-20T03:04:50.320Z,0.00
2019-02-20T03:05:50.347Z,0.00
2019-02-20T03:06:50.378Z,0.00
2019-02-20T03:07:50.404Z,0.00
2019-02-20T03:08:50.429Z,0.00
2019-02-20T03:09:50.466Z,0.00
2019-02-20T03:10:50.482Z,0.00
2019-02-20T03:11:50.509Z,0.00
2019-02-20T03:12:50.536Z,0.00
2019-02-20T03:13:51.866Z,0.00
2019-02-20T03:14:50.593Z,0.00
2019-02-20T03:15:50.620Z,0.00
2019-02-20T03:16:50.645Z,0.00
2019-02-20T03:17:50.674Z,0.00
2019-02-20T03:18:50.698Z,0.00
2019-02-20T03:19:50.775Z,0.00
2019-02-20T03:20:50.761Z,0.00
2019-02-20T03:21:50.782Z,0.00
2019-02-20T03:22:50.804Z,0.00
2019-02-20T03:23:50.845Z,0.00
2019-02-20T03:24:50.861Z,0.00
2019-02-20T03:25:50.886Z,0.00
2019-02-20T03:26:50.913Z,0.00
2019-02-20T03:27:50.940Z,0.00
2019-02-20T03:28:50.967Z,0.00
2019-02-20T03:29:50.994Z,0.00
2019-02-20T03:30:51.022Z,0.00
2019-02-20T03:31:51.065Z,0.00
2019-02-20T03:32:51.076Z,0.00
2019-02-20T03:33:51.110Z,0.00
2019-02-20T03:34:51.129Z,0.00
2019-02-20T03:35:51.186Z,0.00
2019-02-20T03:36:51.187Z,0.00
2019-02-20T03:37:51.212Z,0.00
2019-02-20T03:38:51.252Z,0.00
2019-02-20T03:39:51.263Z,0.00
2019-02-20T03:40:51.290Z,0.00
2019-02-20T03:41:51.319Z,0.00
2019-02-20T03:42:51.346Z,0.00
2019-02-20T03:43:51.374Z,0.00
2019-02-20T03:44:51.400Z,0.00
2019-02-20T03:45:51.426Z,0.00
2019-02-20T03:46:51.497Z,0.00
2019-02-20T03:47:51.481Z,0.00
2019-02-20T03:48:51.508Z,0.00
2019-02-20T03:49:51.534Z,0.00
2019-02-20T03:50:51.560Z,0.00
2019-02-20T03:51:51.588Z,0.00
2019-02-20T03:52:51.615Z,0.00
2019-02-20T03:53:52.377Z,0.00
2019-02-20T03:54:51.669Z,0.00
2019-02-20T03:55:51.697Z,0.00
2019-02-20T03:56:51.729Z,0.00
2019-02-20T03:57:51.752Z,0.00
2019-02-20T03:58:51.779Z,0.00
2019-02-20T03:59:51.806Z,0.00
2019-02-20T04:00:51.833Z,0.00
2019-02-20T04:01:51.860Z,0.00
2019-02-20T04:02:51.889Z,0.00
2019-02-20T04:03:51.915Z,0.00
2019-02-20T04:04:51.941Z,0.00
2019-02-20T04:05:51.968Z,0.00
2019-02-20T04:06:51.995Z,0.00
2019-02-20T04:07:52.029Z,0.00
2019-02-20T04:08:52.052Z,0.00
2019-02-20T04:09:52.075Z,0.00
2019-02-20T04:10:52.106Z,0.00
2019-02-20T04:11:52.131Z,0.00
2019-02-20T04:12:52.167Z,0.00
2019-02-20T04:13:52.185Z,0.00
2019-02-20T04:14:52.211Z,0.00
2019-02-20T04:15:52.242Z,0.00
2019-02-20T04:16:52.267Z,0.00
2019-02-20T04:17:52.294Z,0.00
2019-02-20T04:18:52.325Z,0.00
2019-02-20T04:19:52.348Z,0.00
2019-02-20T04:20:52.378Z,0.00
2019-02-20T04:21:52.402Z,0.00
2019-02-20T04:22:52.429Z,0.00
2019-02-20T04:24:01.909Z,0.00
2019-02-20T04:24:52.483Z,0.00
2019-02-20T04:25:52.511Z,0.00
2019-02-20T04:26:52.537Z,0.00
2019-02-20T04:27:52.565Z,0.00
2019-02-20T04:28:52.592Z,0.00
2019-02-20T04:29:52.624Z,0.00
2019-02-20T04:30:52.647Z,0.00
2019-02-20T04:31:52.674Z,0.00
2019-02-20T04:32:52.707Z,0.00
2019-02-20T04:33:52.732Z,0.00
2019-02-20T04:34:53.858Z,0.00
2019-02-20T04:35:52.793Z,0.00
2019-02-20T04:36:52.814Z,0.00
2019-02-20T04:37:52.838Z,0.00
2019-02-20T04:38:52.866Z,0.00
2019-02-20T04:39:52.899Z,0.00
2019-02-20T04:40:52.920Z,0.00
2019-02-20T04:41:52.947Z,0.00
2019-02-20T04:42:52.973Z,0.00
2019-02-20T04:43:53.002Z,0.00
2019-02-20T04:44:53.035Z,0.00
2019-02-20T04:45:53.056Z,0.00
2019-02-20T04:46:53.083Z,0.00
2019-02-20T04:47:53.113Z,0.00
2019-02-20T04:48:53.141Z,0.00
2019-02-20T04:49:53.165Z,0.00
2019-02-20T04:50:53.197Z,0.00
2019-02-20T04:51:53.221Z,0.00
2019-02-20T04:52:53.253Z,0.00
2019-02-20T04:53:53.278Z,0.00
2019-02-20T04:54:53.354Z,0.00
2019-02-20T04:55:53.330Z,0.00
2019-02-20T04:56:53.359Z,0.00
2019-02-20T04:57:53.385Z,0.00
2019-02-20T04:58:53.414Z,0.00
2019-02-20T04:59:53.440Z,0.00
2019-02-20T05:00:53.468Z,0.00
2019-02-20T05:01:53.495Z,0.00
2019-02-20T05:02:53.563Z,0.00
2019-02-20T05:03:53.551Z,0.00
2019-02-20T05:04:53.652Z,0.00
2019-02-20T05:05:53.606Z,0.00
2019-02-20T05:06:53.630Z,0.00
2019-02-20T05:07:53.658Z,0.00
2019-02-20T05:08:53.686Z,0.00
2019-02-20T05:09:53.713Z,0.00
2019-02-20T05:10:53.742Z,0.00
2019-02-20T05:11:53.770Z,0.00
2019-02-20T05:12:53.794Z,0.00
2019-02-20T05:13:53.821Z,0.00
2019-02-20T05:14:53.850Z,0.00
2019-02-20T05:15:53.878Z,0.00
2019-02-20T05:16:53.904Z,0.00
2019-02-20T05:17:53.934Z,0.00
2019-02-20T05:18:53.958Z,0.00
2019-02-20T05:19:53.986Z,0.00
2019-02-20T05:20:54.013Z,0.00
2019-02-20T05:21:54.045Z,0.00
2019-02-20T05:22:54.067Z,0.00
2019-02-20T05:23:54.094Z,0.00
2019-02-20T05:24:54.122Z,0.00
2019-02-20T05:25:54.151Z,0.00
2019-02-20T05:26:54.174Z,0.00
2019-02-20T05:27:54.202Z,0.00
2019-02-20T05:28:54.232Z,0.00
2019-02-20T05:29:54.258Z,0.00
2019-02-20T05:30:54.284Z,0.00
2019-02-20T05:31:54.315Z,0.00
2019-02-20T05:32:54.338Z,0.00
2019-02-20T05:33:54.366Z,0.00
2019-02-20T05:34:54.393Z,0.00
2019-02-20T05:35:56.725Z,0.00
2019-02-20T05:36:54.448Z,0.00
2019-02-20T05:37:54.475Z,0.00
2019-02-20T05:38:54.501Z,0.00
2019-02-20T05:39:54.532Z,0.00
2019-02-20T05:40:54.560Z,0.00
2019-02-20T05:41:54.583Z,0.00
2019-02-20T05:42:54.612Z,0.00
2019-02-20T05:43:54.638Z,0.00
2019-02-20T05:44:54.678Z,0.00
2019-02-20T05:45:54.697Z,0.00
2019-02-20T05:46:54.720Z,0.00
2019-02-20T05:47:54.748Z,0.00
2019-02-20T05:48:54.775Z,0.00
2019-02-20T05:49:54.802Z,0.00
2019-02-20T05:50:54.830Z,0.00
2019-02-20T05:51:54.858Z,0.00
2019-02-20T05:52:54.885Z,0.00
2019-02-20T05:53:54.913Z,0.00
2019-02-20T05:54:54.938Z,0.00
2019-02-20T05:55:54.969Z,0.00
2019-02-20T05:56:54.996Z,0.00
2019-02-20T05:57:55.031Z,0.00
2019-02-20T05:58:55.048Z,0.00
2019-02-20T05:59:55.075Z,0.00
2019-02-20T06:00:55.104Z,0.00
2019-02-20T06:01:55.133Z,4.00
2019-02-20T06:02:55.159Z,4.00
2019-02-20T06:03:55.186Z,0.00
2019-02-20T06:04:55.216Z,4.00
2019-02-20T06:05:55.241Z,4.00
2019-02-20T06:06:55.269Z,4.00
2019-02-20T06:07:55.297Z,8.00
2019-02-20T06:08:55.323Z,8.00
2019-02-20T06:09:55.349Z,8.00
2019-02-20T06:10:55.378Z,12.00
2019-02-20T06:11:55.406Z,12.00
2019-02-20T06:12:55.433Z,12.00
2019-02-20T06:13:55.461Z,20.00
2019-02-20T06:14:55.488Z,20.00
2019-02-20T06:15:55.519Z,20.00
2019-02-20T06:16:55.542Z,24.00
2019-02-20T06:17:55.573Z,32.00
2019-02-20T06:18:55.597Z,36.00
2019-02-20T06:19:55.623Z,40.00
2019-02-20T06:20:55.651Z,48.00
2019-02-20T06:21:55.677Z,52.00
2019-02-20T06:22:55.707Z,60.00
2019-02-20T06:23:55.734Z,68.00
2019-02-20T06:24:55.762Z,80.00
2019-02-20T06:25:55.788Z,88.00
2019-02-20T06:26:55.815Z,104.00
2019-02-20T06:27:55.844Z,124.00
2019-02-20T06:28:55.870Z,140.00
2019-02-20T06:29:55.897Z,160.00
2019-02-20T06:30:55.928Z,180.00
2019-02-20T06:31:55.954Z,200.00
2019-02-20T06:32:55.980Z,228.00
2019-02-20T06:33:56.013Z,256.00
2019-02-20T06:34:56.038Z,280.00
2019-02-20T06:35:56.062Z,304.00
2019-02-20T06:36:56.091Z,332.00
2019-02-20T06:37:56.117Z,368.00
2019-02-20T06:38:56.145Z,404.00
2019-02-20T06:39:56.173Z,440.00
2019-02-20T06:40:56.200Z,480.00
2019-02-20T06:41:56.230Z,524.00
2019-02-20T06:42:56.255Z,576.00
2019-02-20T06:43:56.282Z,628.00
2019-02-20T06:44:56.316Z,680.00
2019-02-20T06:45:56.339Z,740.00
2019-02-20T06:46:56.363Z,796.00
2019-02-20T06:47:56.392Z,856.00
2019-02-20T06:48:56.418Z,904.00
2019-02-20T06:49:56.445Z,952.00
2019-02-20T06:50:56.474Z,1004.00
2019-02-20T06:51:56.501Z,1056.00
2019-02-20T06:52:56.533Z,1108.00
2019-02-20T06:53:56.556Z,1164.00
2019-02-20T06:54:56.590Z,1224.00
2019-02-20T06:55:56.611Z,1280.00
2019-02-20T06:56:56.639Z,1336.00
2019-02-20T06:57:56.666Z,1392.00
2019-02-20T06:58:56.705Z,1456.00
2019-02-20T06:59:56.721Z,1500.00
2019-02-20T07:00:56.751Z,1528.00
2019-02-20T07:01:56.777Z,1556.00
2019-02-20T07:02:56.806Z,1624.00
2019-02-20T07:03:56.829Z,1716.00
2019-02-20T07:04:56.861Z,1804.00
2019-02-20T07:05:56.884Z,1888.00
2019-02-20T07:06:56.911Z,2016.00
2019-02-20T07:07:56.939Z,2128.00
2019-02-20T07:08:56.968Z,2144.00
2019-02-20T07:09:56.992Z,2180.00
2019-02-20T07:10:57.022Z,2240.00
2019-02-20T07:11:57.048Z,2344.00
2019-02-20T07:12:57.074Z,2472.00
2019-02-20T07:13:57.101Z,2628.00
2019-02-20T07:14:57.135Z,2716.00
2019-02-20T07:15:57.155Z,2764.00
2019-02-20T07:16:57.183Z,2764.00
2019-02-20T07:17:57.211Z,2744.00
2019-02-20T07:18:57.237Z,2776.00
2019-02-20T07:19:57.264Z,2860.00
2019-02-20T07:20:57.291Z,2948.00
2019-02-20T07:21:57.324Z,3068.00
2019-02-20T07:22:57.346Z,3196.00
2019-02-20T07:23:57.376Z,3272.00
2019-02-20T07:25:03.059Z,3316.00
2019-02-20T07:25:57.431Z,3296.00
2019-02-20T07:26:57.456Z,3260.00
2019-02-20T07:27:57.486Z,3364.00
2019-02-20T07:28:57.510Z,3644.00
2019-02-20T07:29:57.537Z,3868.00
2019-02-20T07:30:57.565Z,4064.00
2019-02-20T07:31:57.592Z,4148.00
2019-02-20T07:32:57.620Z,4140.00
2019-02-20T07:33:57.648Z,4224.00
2019-02-20T07:34:57.675Z,4372.00
2019-02-20T07:35:57.703Z,4548.00
2019-02-20T07:36:57.733Z,4740.00
2019-02-20T07:37:57.825Z,4816.00
2019-02-20T07:38:57.809Z,4828.00
2019-02-20T07:39:57.834Z,4796.00
2019-02-20T07:40:57.840Z,4840.00
2019-02-20T07:41:57.904Z,4788.00
2019-02-20T07:42:57.895Z,4704.00
2019-02-20T07:43:57.925Z,4612.00
2019-02-20T07:44:57.987Z,4544.00
2019-02-20T07:45:57.979Z,4544.00
2019-02-20T07:46:58.008Z,4532.00
2019-02-20T07:47:58.034Z,4620.00
2019-02-20T07:48:58.062Z,4760.00
2019-02-20T07:49:58.090Z,4784.00
2019-02-20T07:50:58.157Z,4788.00
2019-02-20T07:51:58.145Z,4896.00
2019-02-20T07:52:58.173Z,4996.00
2019-02-20T07:53:58.203Z,5032.00
2019-02-20T07:54:58.232Z,5040.00
2019-02-20T07:55:58.257Z,5120.00
2019-02-20T07:56:58.287Z,5272.00
2019-02-20T07:57:58.317Z,5408.00
2019-02-20T07:58:58.340Z,5832.00
2019-02-20T07:59:58.368Z,6244.00
2019-02-20T08:00:58.397Z,6468.00
2019-02-20T08:01:58.426Z,6656.00
2019-02-20T08:02:58.452Z,6988.00
2019-02-20T08:03:58.479Z,7384.00
2019-02-20T08:04:58.509Z,7044.00
2019-02-20T08:05:58.539Z,6936.00
2019-02-20T08:06:58.576Z,6704.00
2019-02-20T08:07:58.594Z,6360.00
2019-02-20T08:08:58.622Z,6000.00
2019-02-20T08:09:58.648Z,5720.00
2019-02-20T08:10:58.676Z,5504.00
2019-02-20T08:11:58.705Z,5488.00
2019-02-20T08:12:58.743Z,5528.00
2019-02-20T08:13:58.769Z,5616.00
2019-02-20T08:14:58.790Z,5836.00
2019-02-20T08:15:58.819Z,5960.00
2019-02-20T08:16:58.846Z,6116.00
2019-02-20T08:17:58.875Z,6404.00
2019-02-20T08:18:58.902Z,6644.00
2019-02-20T08:19:58.938Z,10076.00
2019-02-20T08:20:58.960Z,8044.00
2019-02-20T08:21:58.987Z,8264.00
2019-02-20T08:22:59.015Z,15040.00
2019-02-20T08:23:59.043Z,16288.00
2019-02-20T08:24:59.072Z,16928.00
2019-02-20T08:25:59.710Z,16288.00
2019-02-20T08:26:59.142Z,17824.00
2019-02-20T08:27:59.158Z,11716.00
2019-02-20T08:28:59.188Z,16480.00
2019-02-20T08:29:59.215Z,18912.00
2019-02-20T08:30:59.249Z,19264.00
2019-02-20T08:31:59.274Z,19904.00
2019-02-20T08:32:59.305Z,19968.00
2019-02-20T08:33:59.333Z,20672.00
2019-02-20T08:34:59.362Z,20832.00
2019-02-20T08:35:59.395Z,21216.00
2019-02-20T08:36:59.423Z,22144.00
2019-02-20T08:37:59.453Z,21856.00
2019-02-20T08:38:59.485Z,22208.00
2019-02-20T08:39:59.519Z,22656.00
2019-02-20T08:40:59.546Z,22880.00
2019-02-20T08:41:59.578Z,23200.00
2019-02-20T08:42:59.608Z,23840.00
2019-02-20T08:43:59.642Z,24640.00
2019-02-20T08:44:59.671Z,25376.00
2019-02-20T08:45:59.701Z,25472.00
2019-02-20T08:46:59.734Z,25536.00
2019-02-20T08:47:59.767Z,26048.00
2019-02-20T08:48:59.798Z,26208.00
2019-02-20T08:49:59.831Z,25664.00
2019-02-20T08:50:59.863Z,25952.00
2019-02-20T08:51:59.896Z,25664.00
2019-02-20T08:52:59.932Z,26944.00
2019-02-20T08:53:59.965Z,27360.00
2019-02-20T08:54:59.995Z,27808.00
2019-02-20T08:56:00.031Z,28352.00
2019-02-20T08:57:00.068Z,29856.00
2019-02-20T08:58:00.095Z,30624.00
2019-02-20T08:59:00.730Z,30400.00
2019-02-20T09:00:00.321Z,30496.00
2019-02-20T09:01:00.203Z,30560.00
2019-02-20T09:02:00.240Z,30912.00
2019-02-20T09:03:00.267Z,31840.00
2019-02-20T09:04:00.302Z,32160.00
2019-02-20T09:05:00.377Z,32544.00
2019-02-20T09:06:00.372Z,32352.00
2019-02-20T09:07:00.407Z,31424.00
2019-02-20T09:08:00.443Z,32864.00
2019-02-20T09:09:00.478Z,33152.00
2019-02-20T09:10:00.517Z,32768.00
2019-02-20T09:11:00.553Z,31488.00
2019-02-20T09:12:00.586Z,31744.00
2019-02-20T09:13:00.624Z,32320.00
2019-02-20T09:14:00.657Z,32800.00
2019-02-20T09:15:00.696Z,33152.00
2019-02-20T09:16:00.731Z,32384.00
2019-02-20T09:17:00.771Z,32448.00
2019-02-20T09:18:00.806Z,32672.00
2019-02-20T09:19:00.842Z,34400.00
2019-02-20T09:20:00.880Z,34688.00
2019-02-20T09:21:01.015Z,33632.00
2019-02-20T09:22:00.985Z,33920.00
2019-02-20T09:23:00.995Z,35104.00
2019-02-20T09:24:01.029Z,37088.00
2019-02-20T09:25:01.081Z,37184.00
2019-02-20T09:26:01.105Z,37120.00
2019-02-20T09:27:01.187Z,38688.00
2019-02-20T09:28:01.182Z,38400.00
2019-02-20T09:29:01.221Z,38752.00
2019-02-20T09:30:01.261Z,39840.00
2019-02-20T09:31:01.296Z,39680.00
2019-02-20T09:32:01.334Z,40960.00
2019-02-20T09:33:01.374Z,41568.00
2019-02-20T09:34:01.411Z,42112.00
2019-02-20T09:35:01.459Z,42464.00
2019-02-20T09:36:01.489Z,42784.00
2019-02-20T09:37:01.529Z,41984.00
2019-02-20T09:38:01.567Z,42528.00
2019-02-20T09:39:01.605Z,43872.00
2019-02-20T09:40:01.647Z,42720.00
2019-02-20T09:41:01.686Z,42656.00
2019-02-20T09:42:01.725Z,43872.00
2019-02-20T09:43:01.763Z,44192.00
2019-02-20T09:44:01.806Z,43264.00
2019-02-20T09:45:01.846Z,44256.00
2019-02-20T09:46:01.883Z,45632.00
2019-02-20T09:47:01.928Z,45344.00
2019-02-20T09:48:01.965Z,45664.00
2019-02-20T09:49:02.006Z,46144.00
2019-02-20T09:50:02.043Z,47456.00
2019-02-20T09:51:02.084Z,47104.00
2019-02-20T09:52:02.125Z,47264.00
2019-02-20T09:53:02.164Z,43648.00
2019-02-20T09:54:02.256Z,38336.00
2019-02-20T09:55:02.245Z,36448.00
2019-02-20T09:56:02.293Z,36096.00
2019-02-20T09:57:02.349Z,36448.00
2019-02-20T09:58:05.402Z,36416.00
2019-02-20T09:59:02.408Z,36576.00
2019-02-20T10:00:02.449Z,36736.00
2019-02-20T10:01:03.079Z,37120.00
2019-02-20T10:02:02.529Z,37536.00
2019-02-20T10:03:02.583Z,39968.00
2019-02-20T10:04:02.615Z,45984.00
2019-02-20T10:05:02.655Z,51232.00
2019-02-20T10:06:02.696Z,50752.00
2019-02-20T10:07:02.736Z,50368.00
2019-02-20T10:08:04.501Z,53728.00
2019-02-20T10:09:02.824Z,57120.00
2019-02-20T10:10:02.882Z,59136.00
2019-02-20T10:11:02.903Z,60192.00
2019-02-20T10:12:02.946Z,61664.00
2019-02-20T10:13:02.987Z,63872.00
2019-02-20T10:14:03.027Z,59008.00
2019-02-20T10:15:03.074Z,49920.00
2019-02-20T10:16:03.122Z,60000.00
2019-02-20T10:17:03.155Z,54656.00
2019-02-20T10:18:03.197Z,64000.00
2019-02-20T10:19:03.242Z,60672.00
2019-02-20T10:20:03.285Z,58880.00
2019-02-20T10:21:04.228Z,59616.00
2019-02-20T10:22:03.368Z,50976.00
2019-02-20T10:23:03.412Z,52096.00
2019-02-20T10:24:03.457Z,36480.00
2019-02-20T10:25:03.516Z,56480.00
2019-02-20T10:26:03.538Z,58528.00
2019-02-20T10:27:03.581Z,35520.00
2019-02-20T10:28:03.626Z,33376.00
2019-02-20T10:29:03.666Z,30016.00
2019-02-20T10:30:03.709Z,27936.00
2019-02-20T10:31:03.751Z,26336.00
2019-02-20T10:32:03.793Z,24896.00
2019-02-20T10:33:03.837Z,25376.00
2019-02-20T10:34:03.877Z,28768.00
2019-02-20T10:35:03.919Z,28320.00
2019-02-20T10:36:03.962Z,49728.00
2019-02-20T10:37:04.000Z,57376.00
2019-02-20T10:38:04.041Z,63232.00
2019-02-20T10:39:04.082Z,48896.00
2019-02-20T10:40:04.124Z,38944.00
2019-02-20T10:41:04.164Z,37408.00
2019-02-20T10:42:04.203Z,34752.00
2019-02-20T10:43:04.244Z,35296.00
2019-02-20T10:44:04.286Z,34752.00
2019-02-20T10:45:04.326Z,45792.00
2019-02-20T10:46:04.366Z,56224.00
2019-02-20T10:47:04.407Z,62304.00
2019-02-20T10:48:04.449Z,66720.00
2019-02-20T10:49:04.488Z,34624.00
2019-02-20T10:50:04.528Z,56640.00
2019-02-20T10:51:04.570Z,54368.00
2019-02-20T10:52:04.610Z,62080.00
2019-02-20T10:53:04.652Z,41312.00
2019-02-20T10:54:04.690Z,33120.00
2019-02-20T10:55:04.731Z,48800.00
2019-02-20T10:56:09.436Z,78432.00
2019-02-20T10:57:04.813Z,52480.00
2019-02-20T10:58:04.854Z,60256.00
2019-02-20T10:59:04.895Z,28672.00
2019-02-20T11:00:04.935Z,37472.00
2019-02-20T11:01:04.977Z,41408.00
2019-02-20T11:02:05.017Z,76448.00
2019-02-20T11:03:05.058Z,77568.00
2019-02-20T11:04:05.100Z,41056.00
2019-02-20T11:05:05.140Z,47936.00
2019-02-20T11:06:05.180Z,59168.00
2019-02-20T11:07:05.223Z,26848.00
2019-02-20T11:08:05.263Z,25344.00
2019-02-20T11:09:05.304Z,26880.00
2019-02-20T11:10:05.346Z,31744.00
2019-02-20T11:11:05.387Z,30496.00
2019-02-20T11:12:05.426Z,61888.00
2019-02-20T11:13:05.468Z,26880.00
2019-02-20T11:14:05.508Z,25376.00
2019-02-20T11:15:05.547Z,26880.00
2019-02-20T11:16:05.587Z,27712.00
2019-02-20T11:17:05.629Z,27584.00
2019-02-20T11:18:05.668Z,26208.00
2019-02-20T11:19:05.712Z,47136.00
2019-02-20T11:20:05.746Z,79968.00
2019-02-20T11:21:05.786Z,79328.00
2019-02-20T11:22:05.828Z,84832.00
2019-02-20T11:23:05.866Z,86528.00
2019-02-20T11:24:05.904Z,87296.00
2019-02-20T11:25:05.954Z,83776.00
2019-02-20T11:26:05.985Z,83296.00
2019-02-20T11:27:06.026Z,82304.00
2019-02-20T11:28:06.065Z,84928.00
2019-02-20T11:29:06.109Z,85472.00
2019-02-20T11:30:07.293Z,81664.00
2019-02-20T11:31:06.190Z,81504.00
2019-02-20T11:32:06.233Z,80320.00
2019-02-20T11:33:06.276Z,78976.00
2019-02-20T11:34:06.318Z,83200.00
2019-02-20T11:35:06.359Z,86816.00
2019-02-20T11:36:06.402Z,81888.00
2019-02-20T11:37:06.448Z,85696.00
2019-02-20T11:38:06.487Z,87840.00
2019-02-20T11:39:06.535Z,86496.00
2019-02-20T11:40:06.576Z,92160.00
2019-02-20T11:41:06.622Z,83648.00
2019-02-20T11:44:06.776Z,59264.00
2019-02-20T11:46:06.865Z,70208.00
2019-02-20T11:49:07.308Z,49376.00
2019-02-20T11:51:07.088Z,52000.00
2019-02-20T11:52:07.130Z,54848.00
2019-02-20T11:54:07.527Z,51872.00
2019-02-20T11:55:07.263Z,66496.00
2019-02-20T11:56:07.283Z,43680.00
2019-02-20T11:57:07.352Z,80832.00
2019-02-20T11:58:07.876Z,88256.00
2019-02-20T11:59:07.640Z,57376.00
2019-02-20T12:00:07.484Z,86112.00
2019-02-20T12:01:07.504Z,85376.00
2019-02-20T12:02:07.548Z,89376.00
2019-02-20T12:03:07.592Z,87296.00
2019-02-20T12:04:07.660Z,89792.00
2019-02-20T12:05:07.681Z,79744.00
2019-02-20T12:06:07.728Z,79328.00
2019-02-20T12:07:07.772Z,77792.00
2019-02-20T12:08:07.817Z,71104.00
2019-02-20T12:09:08.064Z,31040.00
2019-02-20T12:10:08.134Z,44576.00
2019-02-20T12:12:09.463Z,89184.00
2019-02-20T12:13:08.043Z,87904.00
2019-02-20T12:14:08.085Z,88288.00
2019-02-20T12:15:08.131Z,85472.00
2019-02-20T12:16:08.177Z,81568.00
2019-02-20T12:17:08.246Z,85600.00
2019-02-20T12:18:17.182Z,91200.00
2019-02-20T12:19:08.313Z,91936.00
2019-02-20T12:20:08.357Z,88864.00
2019-02-20T12:21:08.406Z,78240.00
2019-02-20T12:22:08.450Z,79104.00
2019-02-20T12:23:08.495Z,79776.00
2019-02-20T12:24:08.541Z,39680.00
2019-02-20T12:25:08.588Z,34688.00
2019-02-20T12:26:08.634Z,38688.00
2019-02-20T12:27:08.678Z,62496.00
2019-02-20T12:28:08.726Z,72032.00
2019-02-20T12:29:08.772Z,70112.00
2019-02-20T12:30:08.815Z,76256.00
2019-02-20T12:31:08.861Z,74432.00
2019-02-20T12:32:08.907Z,78496.00
2019-02-20T12:33:08.953Z,77024.00
2019-02-20T12:34:08.997Z,72384.00
2019-02-20T12:35:09.046Z,53856.00
2019-02-20T12:36:09.099Z,30432.00
2019-02-20T12:37:09.133Z,32064.00
2019-02-20T12:38:09.184Z,28736.00
2019-02-20T12:39:09.223Z,34592.00
2019-02-20T12:40:09.269Z,62336.00
2019-02-20T12:41:10.883Z,30848.00
2019-02-20T12:42:09.358Z,33440.00